Alyeska Resort Wx Sites
Hourly Roundup from Summit Site
ALYSUM 11/23/2017
Click Here to View Graph!

        DATE  TIME   Air  Wind  Wind  Wind   Rel  BATT Solar
                    Temp   Spd   Dir  Gust  Hum%  Volt Watts
                      F   AVG   AVG   MAX   AVG   AVG    M

  11/23/2017 20:00     8     3    70     5    80 13.01  0.00
  11/23/2017 19:00    10     5   314    10    73 13.10  0.00
  11/23/2017 18:00    11     9   317    18    77 13.28  0.00
  11/23/2017 17:00    10    10   319    21    85 13.63  1.84
  11/23/2017 16:00    11    12   321    20    87  0.00 16.77
  11/23/2017 15:00    12     5   307    13    91  0.00 34.22
  11/23/2017 14:00    14     2   166     4    87  0.00 79.81
  11/23/2017 13:00    15     3   327     7    80  0.00146.60
  11/23/2017 12:00    15     4   303     8    84  0.00108.60
  11/23/2017 11:00    13     3   308     6    91 13.04 20.07
  11/23/2017 10:00    13     2   339     4    88 12.66  5.32
  11/23/2017 09:00    13     1     8     3    86 12.62  0.16
  11/23/2017 08:00    12     5    49    11    86 12.64  0.00
  11/23/2017 07:00    12     8    59    13    85 12.66  0.00
  11/23/2017 06:00    13     7    80    11    76 12.70  0.00
  11/23/2017 05:00    13     9    78    15    71 12.74  0.00
  11/23/2017 04:00    14     8    83    14    68 12.77  0.00
  11/23/2017 03:00    14    10    78    16    68 12.79  0.00
  11/23/2017 02:00    14    12    78    18    67 12.82  0.00
  11/23/2017 01:00    13    13    78    20    65 12.84  0.00
  11/22/2017 24:00    12     8    83    15    70 12.86  0.00
  11/22/2017 23:00     9     1    89     4    87 12.88  0.00
  11/22/2017 22:00     8     4   110     7    91 12.91  0.00
  11/22/2017 21:00     8     3   133     6    89 12.94  0.00


Click Here to View Graph!